createdAt,value
2017-07-05T00:00:01.292Z,17.34
2017-07-05T00:00:05.342Z,17.35
2017-07-05T00:00:09.555Z,17.34
2017-07-05T00:00:13.518Z,17.34
2017-07-05T00:00:17.984Z,17.34
2017-07-05T00:00:22.078Z,17.34
2017-07-05T00:00:26.421Z,17.34
2017-07-05T00:00:30.612Z,17.33
2017-07-05T00:00:34.567Z,17.34
2017-07-05T00:00:38.776Z,17.33
2017-07-05T00:00:43.122Z,17.33
2017-07-05T00:00:47.313Z,17.33
2017-07-05T00:00:51.405Z,17.33
2017-07-05T00:00:55.356Z,17.33
2017-07-05T00:00:59.556Z,17.33
2017-07-05T00:01:03.497Z,17.33
2017-07-05T00:01:07.572Z,17.34
2017-07-05T00:01:11.648Z,17.33
2017-07-05T00:01:15.611Z,17.34
2017-07-05T00:01:19.680Z,17.33
2017-07-05T00:01:23.767Z,17.33
2017-07-05T00:01:27.718Z,17.33
2017-07-05T00:01:32.047Z,17.33
2017-07-05T00:01:35.882Z,17.33
2017-07-05T00:01:40.076Z,17.33
2017-07-05T00:01:44.151Z,17.34
2017-07-05T00:01:48.218Z,17.33
2017-07-05T00:01:52.424Z,17.32
2017-07-05T00:01:56.252Z,17.34
2017-07-05T00:02:00.464Z,17.33
2017-07-05T00:02:04.407Z,17.33
2017-07-05T00:02:08.478Z,17.34
2017-07-05T00:02:12.683Z,17.32
2017-07-05T00:02:16.510Z,17.32
2017-07-05T00:02:20.593Z,17.33
2017-07-05T00:02:24.663Z,17.33
2017-07-05T00:02:28.884Z,17.33
2017-07-05T00:02:33.226Z,17.33
2017-07-05T00:02:37.176Z,17.33
2017-07-05T00:02:41.377Z,17.33
2017-07-05T00:02:45.710Z,17.33
2017-07-05T00:02:50.176Z,17.32
2017-07-05T00:02:54.254Z,17.32
2017-07-05T00:02:58.221Z,17.33
2017-07-05T00:03:02.433Z,17.33
2017-07-05T00:03:06.375Z,17.33
2017-07-05T00:03:10.572Z,17.33
2017-07-05T00:03:14.524Z,17.33
2017-07-05T00:03:18.856Z,17.33
2017-07-05T00:03:22.943Z,17.33
2017-07-05T00:03:27.162Z,17.32
2017-07-05T00:03:31.619Z,17.33
2017-07-05T00:03:36.066Z,17.32
2017-07-05T00:03:40.263Z,17.32
2017-07-05T00:03:44.469Z,17.33
2017-07-05T00:03:48.681Z,17.33
2017-07-05T00:03:52.626Z,17.32
2017-07-05T00:03:56.956Z,17.32
2017-07-05T00:04:01.045Z,17.32
2017-07-05T00:04:05.127Z,17.33
2017-07-05T00:04:09.343Z,17.32
2017-07-05T00:04:13.680Z,17.32
2017-07-05T00:04:17.762Z,17.32
2017-07-05T00:04:21.581Z,17.31
2017-07-05T00:04:26.035Z,17.32
2017-07-05T00:04:30.118Z,17.31
2017-07-05T00:04:34.080Z,17.31
2017-07-05T00:04:38.314Z,17.31
2017-07-05T00:04:42.506Z,17.31
2017-07-05T00:04:46.963Z,17.31
2017-07-05T00:04:50.926Z,17.31
2017-07-05T00:04:54.997Z,17.31
2017-07-05T00:04:59.338Z,17.3
2017-07-05T00:05:03.292Z,17.31
2017-07-05T00:05:07.119Z,17.31
2017-07-05T00:05:11.248Z,17.31
2017-07-05T00:05:15.341Z,17.31
2017-07-05T00:05:19.410Z,17.31
2017-07-05T00:05:23.748Z,17.3
2017-07-05T00:05:28.105Z,17.3
2017-07-05T00:05:32.320Z,17.3
2017-07-05T00:05:36.528Z,17.3
2017-07-05T00:05:40.862Z,17.29
2017-07-05T00:05:45.324Z,17.3
2017-07-05T00:05:49.853Z,17.3
2017-07-05T00:05:53.921Z,17.3
2017-07-05T00:05:58.371Z,17.3
2017-07-05T00:06:02.932Z,17.3
2017-07-05T00:06:07.157Z,17.3
2017-07-05T00:06:11.369Z,17.3
2017-07-05T00:06:15.577Z,17.3
2017-07-05T00:06:19.775Z,17.3
2017-07-05T00:06:23.720Z,17.3
2017-07-05T00:06:28.169Z,17.3
2017-07-05T00:06:32.507Z,17.29
2017-07-05T00:06:36.466Z,17.29
2017-07-05T00:06:40.656Z,17.28
2017-07-05T00:06:44.866Z,17.29
2017-07-05T00:06:49.220Z,17.29
2017-07-05T00:06:53.569Z,17.29
2017-07-05T00:06:57.646Z,17.29
2017-07-05T00:07:01.488Z,17.28
2017-07-05T00:07:05.322Z,17.28
2017-07-05T00:07:09.656Z,17.29
2017-07-05T00:07:13.367Z,17.29
2017-07-05T00:07:17.582Z,17.28
2017-07-05T00:07:21.783Z,17.29
2017-07-05T00:07:26.119Z,17.28
2017-07-05T00:07:30.322Z,17.28
2017-07-05T00:07:34.645Z,17.28
2017-07-05T00:07:39.090Z,17.29
2017-07-05T00:07:43.548Z,17.29
2017-07-05T00:07:47.933Z,17.28
2017-07-05T00:07:52.123Z,17.27
2017-07-05T00:07:56.445Z,17.28
2017-07-05T00:08:00.531Z,17.28
2017-07-05T00:08:04.353Z,17.28
2017-07-05T00:08:08.685Z,17.28
2017-07-05T00:08:12.638Z,17.28
2017-07-05T00:08:16.713Z,17.28
2017-07-05T00:08:20.660Z,17.28
2017-07-05T00:08:24.739Z,17.27
2017-07-05T00:08:29.202Z,17.28
2017-07-05T00:08:33.548Z,17.27
2017-07-05T00:08:37.619Z,17.27
2017-07-05T00:08:41.829Z,17.27
2017-07-05T00:08:46.173Z,17.28
2017-07-05T00:08:50.392Z,17.28
2017-07-05T00:08:54.342Z,17.27
2017-07-05T00:08:58.414Z,17.28
2017-07-05T00:09:02.626Z,17.27
2017-07-05T00:09:06.703Z,17.27
2017-07-05T00:09:10.898Z,17.27
2017-07-05T00:09:15.101Z,17.27
2017-07-05T00:09:19.432Z,17.26
2017-07-05T00:09:23.254Z,17.27
2017-07-05T00:09:27.584Z,17.26
2017-07-05T00:09:31.779Z,17.26
2017-07-05T00:09:35.603Z,17.26
2017-07-05T00:09:39.687Z,17.26
2017-07-05T00:09:43.770Z,17.26
2017-07-05T00:09:47.864Z,17.26
2017-07-05T00:09:52.071Z,17.26
2017-07-05T00:09:56.406Z,17.26
2017-07-05T00:10:00.353Z,17.26
2017-07-05T00:10:04.138Z,17.26
2017-07-05T00:10:07.980Z,17.25
2017-07-05T00:10:12.307Z,17.26
2017-07-05T00:10:16.142Z,17.26
2017-07-05T00:10:20.103Z,17.25
2017-07-05T00:10:24.416Z,17.26
2017-07-05T00:10:28.760Z,17.25
2017-07-05T00:10:32.844Z,17.25
2017-07-05T00:10:37.165Z,17.25
2017-07-05T00:10:41.571Z,17.25
2017-07-05T00:10:45.769Z,17.25
2017-07-05T00:10:49.969Z,17.24
2017-07-05T00:10:53.917Z,17.24
2017-07-05T00:10:58.002Z,17.24
2017-07-05T00:11:02.068Z,17.24
2017-07-05T00:11:06.260Z,17.24
2017-07-05T00:11:10.207Z,17.25
2017-07-05T00:11:14.158Z,17.24
2017-07-05T00:11:17.989Z,17.24
2017-07-05T00:11:21.681Z,17.24
2017-07-05T00:11:25.755Z,17.23
2017-07-05T00:11:30.213Z,17.24
2017-07-05T00:11:34.435Z,17.23
2017-07-05T00:11:38.651Z,17.23
2017-07-05T00:11:42.983Z,17.23
2017-07-05T00:11:47.185Z,17.23
2017-07-05T00:11:51.397Z,17.23
2017-07-05T00:11:55.220Z,17.22
2017-07-05T00:11:59.541Z,17.22
2017-07-05T00:12:03.723Z,17.23
2017-07-05T00:12:07.663Z,17.22
2017-07-05T00:12:11.755Z,17.22
2017-07-05T00:12:15.703Z,17.22
2017-07-05T00:12:19.645Z,17.22
2017-07-05T00:12:23.722Z,17.22
2017-07-05T00:12:27.915Z,17.22
2017-07-05T00:12:32.363Z,17.21
2017-07-05T00:12:36.575Z,17.2
2017-07-05T00:12:40.653Z,17.2
2017-07-05T00:12:44.614Z,17.21
2017-07-05T00:12:48.698Z,17.21
2017-07-05T00:12:52.657Z,17.21
2017-07-05T00:12:56.874Z,17.2
2017-07-05T00:13:00.966Z,17.2
2017-07-05T00:13:04.934Z,17.2
2017-07-05T00:13:09.260Z,17.19
2017-07-05T00:13:13.738Z,17.2
2017-07-05T00:13:17.801Z,17.19
2017-07-05T00:13:21.631Z,17.19
2017-07-05T00:13:25.830Z,17.19
2017-07-05T00:13:29.782Z,17.19
2017-07-05T00:13:33.853Z,17.19
2017-07-05T00:13:37.924Z,17.19
2017-07-05T00:13:42.019Z,17.19
2017-07-05T00:13:46.348Z,17.19
2017-07-05T00:13:50.313Z,17.18
2017-07-05T00:13:54.518Z,17.19
2017-07-05T00:13:58.717Z,17.18
2017-07-05T00:14:02.795Z,17.18
2017-07-05T00:14:06.621Z,17.18
2017-07-05T00:14:10.712Z,17.18
2017-07-05T00:14:14.804Z,17.18
2017-07-05T00:14:19.003Z,17.17
2017-07-05T00:14:22.833Z,17.18
2017-07-05T00:14:27.145Z,17.17
2017-07-05T00:14:31.211Z,17.18
2017-07-05T00:14:35.551Z,17.17
2017-07-05T00:14:39.998Z,17.17
2017-07-05T00:14:44.339Z,17.17
2017-07-05T00:14:48.173Z,17.16
2017-07-05T00:14:52.508Z,17.16
2017-07-05T00:14:56.845Z,17.16
2017-07-05T00:15:01.175Z,17.16
2017-07-05T00:15:05.023Z,17.16
2017-07-05T00:15:08.854Z,17.15
2017-07-05T00:15:12.937Z,17.16
2017-07-05T00:15:17.152Z,17.16
2017-07-05T00:15:21.102Z,17.15
2017-07-05T00:15:25.441Z,17.16
2017-07-05T00:15:29.654Z,17.15
2017-07-05T00:15:33.729Z,17.16
2017-07-05T00:15:37.686Z,17.15
2017-07-05T00:15:41.627Z,17.15
2017-07-05T00:15:45.968Z,17.15
2017-07-05T00:15:50.449Z,17.15
2017-07-05T00:15:54.648Z,17.14
2017-07-05T00:15:59.000Z,17.14
2017-07-05T00:16:03.550Z,17.15
2017-07-05T00:16:07.767Z,17.14
2017-07-05T00:16:11.859Z,17.14
2017-07-05T00:16:16.192Z,17.14
2017-07-05T00:16:20.250Z,17.14
2017-07-05T00:16:24.315Z,17.14
2017-07-05T00:16:28.288Z,17.14
2017-07-05T00:16:32.632Z,17.13
2017-07-05T00:16:36.579Z,17.13
2017-07-05T00:16:40.651Z,17.13
2017-07-05T00:16:44.840Z,17.13
2017-07-05T00:16:48.924Z,17.13
2017-07-05T00:16:53.123Z,17.13
2017-07-05T00:16:57.456Z,17.12
2017-07-05T00:17:01.662Z,17.13
2017-07-05T00:17:05.627Z,17.12
2017-07-05T00:17:09.476Z,17.12
2017-07-05T00:17:13.432Z,17.11
2017-07-05T00:17:17.393Z,17.12
2017-07-05T00:17:21.360Z,17.11
2017-07-05T00:17:25.421Z,17.12
2017-07-05T00:17:29.508Z,17.12
2017-07-05T00:17:33.590Z,17.11
2017-07-05T00:17:37.907Z,17.11
2017-07-05T00:17:41.725Z,17.1
2017-07-05T00:17:45.932Z,17.11
2017-07-05T00:17:50.063Z,17.1
2017-07-05T00:17:54.383Z,17.1
2017-07-05T00:17:58.718Z,17.09
2017-07-05T00:18:02.808Z,17.09
2017-07-05T00:18:06.884Z,17.09
2017-07-05T00:18:11.267Z,17.1
2017-07-05T00:18:15.353Z,17.08
2017-07-05T00:18:19.447Z,17.09
2017-07-05T00:18:23.649Z,17.09
2017-07-05T00:18:27.843Z,17.09
2017-07-05T00:18:32.049Z,17.09
2017-07-05T00:18:36.248Z,17.08
2017-07-05T00:18:40.697Z,17.09
2017-07-05T00:18:45.036Z,17.08
2017-07-05T00:18:49.112Z,17.08
2017-07-05T00:18:52.809Z,17.08
2017-07-05T00:18:56.890Z,17.08
2017-07-05T00:19:01.347Z,17.08
2017-07-05T00:19:05.420Z,17.07
2017-07-05T00:19:09.368Z,17.07
2017-07-05T00:19:13.333Z,17.08
2017-07-05T00:19:17.657Z,17.07
2017-07-05T00:19:21.362Z,17.06
2017-07-05T00:19:25.324Z,17.07
2017-07-05T00:19:29.267Z,17.08
2017-07-05T00:19:33.357Z,17.06
2017-07-05T00:19:37.568Z,17.06
2017-07-05T00:19:41.651Z,17.07
2017-07-05T00:19:45.723Z,17.07
2017-07-05T00:19:49.944Z,17.06
2017-07-05T00:19:54.139Z,17.06
2017-07-05T00:19:58.218Z,17.06
2017-07-05T00:20:02.400Z,17.06
2017-07-05T00:20:06.474Z,17.06
2017-07-05T00:20:10.698Z,17.05
2017-07-05T00:20:15.033Z,17.05
2017-07-05T00:20:18.983Z,17.05
2017-07-05T00:20:23.063Z,17.04
2017-07-05T00:20:27.523Z,17.05
2017-07-05T00:20:31.371Z,17.04
2017-07-05T00:20:35.711Z,17.04
2017-07-05T00:20:40.175Z,17.04
2017-07-05T00:20:44.524Z,17.04
2017-07-05T00:20:48.979Z,17.04
2017-07-05T00:20:53.063Z,17.04
2017-07-05T00:20:56.889Z,17.04
2017-07-05T00:21:00.591Z,17.04
2017-07-05T00:21:04.532Z,17.03
2017-07-05T00:21:08.484Z,17.04
2017-07-05T00:21:12.945Z,17.03
2017-07-05T00:21:17.160Z,17.03
2017-07-05T00:21:21.375Z,17.03
2017-07-05T00:21:25.462Z,17.03
2017-07-05T00:21:29.796Z,17.02
2017-07-05T00:21:33.870Z,17.02
2017-07-05T00:21:38.201Z,17.02
2017-07-05T00:21:42.275Z,17.02
2017-07-05T00:21:46.361Z,17.02
2017-07-05T00:21:50.828Z,17.02
2017-07-05T00:21:54.508Z,17.01
2017-07-05T00:21:58.226Z,17.01
2017-07-05T00:22:01.925Z,17.01
2017-07-05T00:22:05.622Z,17.01
2017-07-05T00:22:09.319Z,17.01
2017-07-05T00:22:13.143Z,17
2017-07-05T00:22:16.842Z,17.02
2017-07-05T00:22:20.542Z,17.01
2017-07-05T00:22:24.234Z,17.01
2017-07-05T00:22:28.060Z,17
2017-07-05T00:22:31.892Z,17
2017-07-05T00:22:35.722Z,17
2017-07-05T00:22:39.415Z,17
2017-07-05T00:22:43.121Z,17
2017-07-05T00:22:46.942Z,17
2017-07-05T00:22:50.648Z,17
2017-07-05T00:22:54.356Z,16.99
2017-07-05T00:22:58.062Z,16.99
2017-07-05T00:23:02.034Z,16.99
2017-07-05T00:23:05.728Z,16.98
2017-07-05T00:23:09.555Z,16.98
2017-07-05T00:23:13.271Z,16.98
2017-07-05T00:23:16.971Z,16.98
2017-07-05T00:23:20.669Z,16.98
2017-07-05T00:23:24.481Z,16.99
2017-07-05T00:23:28.308Z,16.98
2017-07-05T00:23:32.266Z,16.98
2017-07-05T00:23:35.983Z,16.97
2017-07-05T00:23:39.694Z,16.97
2017-07-05T00:23:43.391Z,16.97
2017-07-05T00:23:47.084Z,16.97
2017-07-05T00:23:50.909Z,16.97
2017-07-05T00:23:54.602Z,16.97
2017-07-05T00:23:58.303Z,16.97
2017-07-05T00:24:02.660Z,16.96
2017-07-05T00:24:06.617Z,16.97
2017-07-05T00:24:10.940Z,16.96
2017-07-05T00:24:14.894Z,16.96
2017-07-05T00:24:18.989Z,16.96
2017-07-05T00:24:23.078Z,16.95
2017-07-05T00:24:27.518Z,16.95
2017-07-05T00:24:31.853Z,16.95
2017-07-05T00:24:36.062Z,16.96
2017-07-05T00:24:40.381Z,16.94
2017-07-05T00:24:44.703Z,16.95
2017-07-05T00:24:48.775Z,16.95
2017-07-05T00:24:53.133Z,16.94
2017-07-05T00:24:57.341Z,16.95
2017-07-05T00:25:02.107Z,16.94
2017-07-05T00:25:05.934Z,16.94
2017-07-05T00:25:10.020Z,16.94
2017-07-05T00:25:14.355Z,16.93
2017-07-05T00:25:18.437Z,16.94
2017-07-05T00:25:22.143Z,16.93
2017-07-05T00:25:26.353Z,16.94
2017-07-05T00:25:30.441Z,16.93
2017-07-05T00:25:34.529Z,16.93
2017-07-05T00:25:38.985Z,16.92
2017-07-05T00:25:43.311Z,16.93
2017-07-05T00:25:47.526Z,16.92
2017-07-05T00:25:51.725Z,16.93
2017-07-05T00:25:56.169Z,16.92
2017-07-05T00:26:00.235Z,16.92
2017-07-05T00:26:04.829Z,16.92
2017-07-05T00:26:09.177Z,16.91
2017-07-05T00:26:13.331Z,16.91
2017-07-05T00:26:17.536Z,16.92
2017-07-05T00:26:21.617Z,16.91
2017-07-05T00:26:25.957Z,16.91
2017-07-05T00:26:30.080Z,16.91
2017-07-05T00:26:33.773Z,16.91
2017-07-05T00:26:37.848Z,16.9
2017-07-05T00:26:41.933Z,16.91
2017-07-05T00:26:46.269Z,16.9
2017-07-05T00:26:50.483Z,16.9
2017-07-05T00:26:54.694Z,16.91
2017-07-05T00:26:58.653Z,16.89
2017-07-05T00:27:02.651Z,16.89
2017-07-05T00:27:06.807Z,16.89
2017-07-05T00:27:11.140Z,16.9
2017-07-05T00:27:15.459Z,16.89
2017-07-05T00:27:19.670Z,16.88
2017-07-05T00:27:23.747Z,16.89
2017-07-05T00:27:28.147Z,16.9
2017-07-05T00:27:32.608Z,16.89
2017-07-05T00:27:36.549Z,16.88
2017-07-05T00:27:40.879Z,16.88
2017-07-05T00:27:44.836Z,16.88
2017-07-05T00:27:48.794Z,16.88
2017-07-05T00:27:52.860Z,16.88
2017-07-05T00:27:57.073Z,16.87
2017-07-05T00:28:01.269Z,16.88
2017-07-05T00:28:05.478Z,16.87
2017-07-05T00:28:09.679Z,16.87
2017-07-05T00:28:13.890Z,16.87
2017-07-05T00:28:18.099Z,16.87
2017-07-05T00:28:22.049Z,16.87
2017-07-05T00:28:26.123Z,16.87
2017-07-05T00:28:30.184Z,16.86
2017-07-05T00:28:34.387Z,16.86
2017-07-05T00:28:38.593Z,16.86
2017-07-05T00:28:42.913Z,16.86
2017-07-05T00:28:47.403Z,16.86
2017-07-05T00:28:51.480Z,16.86
2017-07-05T00:28:55.824Z,16.86
2017-07-05T00:29:00.033Z,16.86
2017-07-05T00:29:04.149Z,16.85
2017-07-05T00:29:08.345Z,16.85
2017-07-05T00:29:12.308Z,16.85
2017-07-05T00:29:16.387Z,16.85
2017-07-05T00:29:20.588Z,16.85
2017-07-05T00:29:24.954Z,16.85
2017-07-05T00:29:29.280Z,16.84
2017-07-05T00:29:33.483Z,16.85
2017-07-05T00:29:37.579Z,16.84
2017-07-05T00:29:41.905Z,16.84
2017-07-05T00:29:45.990Z,16.84
2017-07-05T00:29:50.073Z,16.84
2017-07-05T00:29:54.159Z,16.84
2017-07-05T00:29:58.484Z,16.84
2017-07-05T00:30:02.565Z,16.83
2017-07-05T00:30:06.396Z,16.84
2017-07-05T00:30:10.714Z,16.83
2017-07-05T00:30:14.775Z,16.83
2017-07-05T00:30:18.733Z,16.83
2017-07-05T00:30:22.576Z,16.82
2017-07-05T00:30:26.549Z,16.83
2017-07-05T00:30:30.615Z,16.82
2017-07-05T00:30:35.055Z,16.82
2017-07-05T00:30:39.250Z,16.83
2017-07-05T00:30:43.324Z,16.82
2017-07-05T00:30:47.405Z,16.82
2017-07-05T00:30:51.502Z,16.82
2017-07-05T00:30:55.944Z,16.83
2017-07-05T00:31:00.333Z,16.82
2017-07-05T00:31:04.099Z,16.82
2017-07-05T00:31:08.317Z,16.82
2017-07-05T00:31:12.525Z,16.82
2017-07-05T00:31:16.610Z,16.81
2017-07-05T00:31:20.699Z,16.81
2017-07-05T00:31:24.917Z,16.82
2017-07-05T00:31:29.368Z,16.82
2017-07-05T00:31:33.450Z,16.81
2017-07-05T00:31:37.669Z,16.81
2017-07-05T00:31:41.749Z,16.81
2017-07-05T00:31:45.691Z,16.81
2017-07-05T00:31:49.767Z,16.8
2017-07-05T00:31:54.242Z,16.81
2017-07-05T00:31:58.448Z,16.81
2017-07-05T00:32:02.823Z,16.81
2017-07-05T00:32:07.146Z,16.81
2017-07-05T00:32:10.981Z,16.81
2017-07-05T00:32:15.065Z,16.81
2017-07-05T00:32:19.157Z,16.81
2017-07-05T00:32:23.229Z,16.8
2017-07-05T00:32:27.449Z,16.81
2017-07-05T00:32:31.785Z,16.81
2017-07-05T00:32:35.992Z,16.81
2017-07-05T00:32:40.346Z,16.81
2017-07-05T00:32:44.293Z,16.8
2017-07-05T00:32:48.369Z,16.81
2017-07-05T00:32:52.314Z,16.8
2017-07-05T00:32:56.529Z,16.81
2017-07-05T00:33:00.749Z,16.8
2017-07-05T00:33:04.844Z,16.8
2017-07-05T00:33:09.054Z,16.8
2017-07-05T00:33:13.003Z,16.8
2017-07-05T00:33:17.201Z,16.79
2017-07-05T00:33:21.289Z,16.8
2017-07-05T00:33:25.267Z,16.8
2017-07-05T00:33:29.221Z,16.79
2017-07-05T00:33:33.558Z,16.8
2017-07-05T00:33:37.383Z,16.79
2017-07-05T00:33:41.619Z,16.8
2017-07-05T00:33:45.690Z,16.79
2017-07-05T00:33:49.385Z,16.79
2017-07-05T00:33:53.481Z,16.79
2017-07-05T00:33:57.893Z,16.8
2017-07-05T00:34:01.959Z,16.79
2017-07-05T00:34:05.904Z,16.8
2017-07-05T00:34:10.108Z,16.79
2017-07-05T00:34:14.448Z,16.8
2017-07-05T00:34:18.648Z,16.79
2017-07-05T00:34:22.862Z,16.78
2017-07-05T00:34:26.569Z,16.79
2017-07-05T00:34:30.537Z,16.79
2017-07-05T00:34:34.619Z,16.79
2017-07-05T00:34:38.955Z,16.79
2017-07-05T00:34:42.905Z,16.79
2017-07-05T00:34:47.354Z,16.78
2017-07-05T00:34:51.569Z,16.79
2017-07-05T00:34:55.667Z,16.78
2017-07-05T00:35:00.109Z,16.79
2017-07-05T00:35:04.175Z,16.78
2017-07-05T00:35:08.502Z,16.78
2017-07-05T00:35:12.850Z,16.78
2017-07-05T00:35:17.311Z,16.79
2017-07-05T00:35:21.274Z,16.79
2017-07-05T00:35:25.230Z,16.79
2017-07-05T00:35:29.305Z,16.78
2017-07-05T00:35:33.389Z,16.78
2017-07-05T00:35:37.757Z,16.78
2017-07-05T00:35:42.210Z,16.78
2017-07-05T00:35:46.284Z,16.77
2017-07-05T00:35:50.377Z,16.79
2017-07-05T00:35:54.596Z,16.78
2017-07-05T00:35:59.044Z,16.79
2017-07-05T00:36:03.197Z,16.78
2017-07-05T00:36:07.303Z,16.78
2017-07-05T00:36:11.421Z,16.78
2017-07-05T00:36:15.744Z,16.78
2017-07-05T00:36:19.726Z,16.78
2017-07-05T00:36:23.672Z,16.78
2017-07-05T00:36:27.879Z,16.77
2017-07-05T00:36:31.839Z,16.78
2017-07-05T00:36:36.034Z,16.78
2017-07-05T00:36:40.234Z,16.77
2017-07-05T00:36:44.437Z,16.79
2017-07-05T00:36:48.773Z,16.77
2017-07-05T00:36:52.984Z,16.77
2017-07-05T00:36:57.066Z,16.78
2017-07-05T00:37:01.398Z,16.77
2017-07-05T00:37:05.714Z,16.78
2017-07-05T00:37:09.666Z,16.77
2017-07-05T00:37:13.737Z,16.77
2017-07-05T00:37:17.941Z,16.78
2017-07-05T00:37:22.284Z,16.77
2017-07-05T00:37:26.772Z,16.77
2017-07-05T00:37:31.128Z,16.77
2017-07-05T00:37:35.329Z,16.77
2017-07-05T00:37:39.276Z,16.77
2017-07-05T00:37:43.354Z,16.78
2017-07-05T00:37:47.575Z,16.77
2017-07-05T00:37:51.662Z,16.77
2017-07-05T00:37:55.983Z,16.77
2017-07-05T00:38:00.171Z,16.77
2017-07-05T00:38:04.251Z,16.77
2017-07-05T00:38:08.627Z,16.77
2017-07-05T00:38:12.435Z,16.78
2017-07-05T00:38:16.651Z,16.78
2017-07-05T00:38:20.727Z,16.76
2017-07-05T00:38:24.680Z,16.76
2017-07-05T00:38:29.125Z,16.77
2017-07-05T00:38:33.069Z,16.76
2017-07-05T00:38:37.160Z,16.75
2017-07-05T00:38:41.359Z,16.76
2017-07-05T00:38:45.305Z,16.75
2017-07-05T00:38:49.518Z,16.76
2017-07-05T00:38:53.595Z,16.77
2017-07-05T00:38:57.929Z,16.76
2017-07-05T00:39:01.996Z,16.76
2017-07-05T00:39:05.947Z,16.76
2017-07-05T00:39:10.045Z,16.77
2017-07-05T00:39:14.242Z,16.76
2017-07-05T00:39:18.690Z,16.76
2017-07-05T00:39:22.651Z,16.76
2017-07-05T00:39:26.608Z,16.76
2017-07-05T00:39:30.952Z,16.76
2017-07-05T00:39:35.151Z,16.76
2017-07-05T00:39:39.608Z,16.75
2017-07-05T00:39:43.540Z,16.76
2017-07-05T00:39:47.865Z,16.76
2017-07-05T00:39:52.200Z,16.76
2017-07-05T00:39:56.162Z,16.75
2017-07-05T00:40:00.631Z,16.75
2017-07-05T00:40:04.828Z,16.74
2017-07-05T00:40:08.777Z,16.74
2017-07-05T00:40:13.099Z,16.74
2017-07-05T00:40:17.298Z,16.76
2017-07-05T00:40:21.362Z,16.75
2017-07-05T00:40:25.319Z,16.74
2017-07-05T00:40:29.269Z,16.74
2017-07-05T00:40:33.600Z,16.74
2017-07-05T00:40:37.810Z,16.74
2017-07-05T00:40:42.011Z,16.74
2017-07-05T00:40:46.481Z,16.74
2017-07-05T00:40:50.806Z,16.73
2017-07-05T00:40:55.023Z,16.74
2017-07-05T00:40:59.115Z,16.74
2017-07-05T00:41:03.207Z,16.74
2017-07-05T00:41:07.294Z,16.73
2017-07-05T00:41:11.369Z,16.73
2017-07-05T00:41:15.584Z,16.74
2017-07-05T00:41:19.543Z,16.74
2017-07-05T00:41:23.371Z,16.73
2017-07-05T00:41:27.573Z,16.73
2017-07-05T00:41:31.793Z,16.72
2017-07-05T00:41:35.740Z,16.72
2017-07-05T00:41:40.209Z,16.73
2017-07-05T00:41:44.563Z,16.72
2017-07-05T00:41:48.633Z,16.72
2017-07-05T00:41:52.850Z,16.73
2017-07-05T00:41:56.933Z,16.72
2017-07-05T00:42:00.893Z,16.73
2017-07-05T00:42:05.117Z,16.72
2017-07-05T00:42:09.063Z,16.72
2017-07-05T00:42:13.262Z,16.72
2017-07-05T00:42:17.339Z,16.72
2017-07-05T00:42:21.545Z,16.72
2017-07-05T00:42:25.757Z,16.71
2017-07-05T00:42:30.223Z,16.71
2017-07-05T00:42:34.426Z,16.71
2017-07-05T00:42:38.772Z,16.71
2017-07-05T00:42:43.267Z,16.71
2017-07-05T00:42:47.439Z,16.71
2017-07-05T00:42:51.517Z,16.71
2017-07-05T00:42:55.707Z,16.71
2017-07-05T00:43:00.054Z,16.71
2017-07-05T00:43:03.996Z,16.71
2017-07-05T00:43:07.969Z,16.71
2017-07-05T00:43:12.174Z,16.71
2017-07-05T00:43:15.993Z,16.7
2017-07-05T00:43:20.071Z,16.7
2017-07-05T00:43:23.906Z,16.7
2017-07-05T00:43:28.357Z,16.7
2017-07-05T00:43:32.552Z,16.7
2017-07-05T00:43:36.744Z,16.7
2017-07-05T00:43:40.944Z,16.69
2017-07-05T00:43:45.410Z,16.7
2017-07-05T00:43:49.529Z,16.69
2017-07-05T00:43:53.476Z,16.68
2017-07-05T00:43:57.682Z,16.69
2017-07-05T00:44:01.644Z,16.68
2017-07-05T00:44:05.689Z,16.69
2017-07-05T00:44:09.913Z,16.69
2017-07-05T00:44:13.858Z,16.68
2017-07-05T00:44:17.811Z,16.68
2017-07-05T00:44:21.692Z,16.68
2017-07-05T00:44:26.033Z,16.68
2017-07-05T00:44:30.357Z,16.68
2017-07-05T00:44:34.417Z,16.69
2017-07-05T00:44:38.624Z,16.68
2017-07-05T00:44:42.960Z,16.67
2017-07-05T00:44:47.360Z,16.67
2017-07-05T00:44:51.560Z,16.68
2017-07-05T00:44:56.015Z,16.67
2017-07-05T00:45:00.234Z,16.67
2017-07-05T00:45:04.064Z,16.67
2017-07-05T00:45:08.138Z,16.67
2017-07-05T00:45:12.230Z,16.67
2017-07-05T00:45:16.436Z,16.66
2017-07-05T00:45:20.400Z,16.67
2017-07-05T00:45:24.360Z,16.66
2017-07-05T00:45:28.697Z,16.66
2017-07-05T00:45:32.774Z,16.66
2017-07-05T00:45:36.982Z,16.66
2017-07-05T00:45:40.950Z,16.66
2017-07-05T00:45:45.313Z,16.66
2017-07-05T00:45:49.514Z,16.66
2017-07-05T00:45:53.733Z,16.66
2017-07-05T00:45:58.061Z,16.66
2017-07-05T00:46:02.139Z,16.66
2017-07-05T00:46:06.357Z,16.66
2017-07-05T00:46:10.183Z,16.65
2017-07-05T00:46:13.867Z,16.65
2017-07-05T00:46:17.940Z,16.66
2017-07-05T00:46:22.068Z,16.65
2017-07-05T00:46:26.143Z,16.65
2017-07-05T00:46:30.220Z,16.65
2017-07-05T00:46:34.187Z,16.65
2017-07-05T00:46:38.377Z,16.64
2017-07-05T00:46:42.586Z,16.64
2017-07-05T00:46:47.036Z,16.65
2017-07-05T00:46:51.493Z,16.63
2017-07-05T00:46:55.707Z,16.64
2017-07-05T00:46:59.925Z,16.64
2017-07-05T00:47:04.003Z,16.64
2017-07-05T00:47:08.225Z,16.63
2017-07-05T00:47:12.286Z,16.64
2017-07-05T00:47:16.493Z,16.62
2017-07-05T00:47:20.561Z,16.63
2017-07-05T00:47:24.667Z,16.63
2017-07-05T00:47:28.997Z,16.62
2017-07-05T00:47:33.459Z,16.62
2017-07-05T00:47:37.287Z,16.63
2017-07-05T00:47:41.502Z,16.62
2017-07-05T00:47:45.977Z,16.62
2017-07-05T00:47:50.306Z,16.61
2017-07-05T00:47:54.510Z,16.62
2017-07-05T00:47:58.716Z,16.62
2017-07-05T00:48:03.067Z,16.61
2017-07-05T00:48:07.148Z,16.62
2017-07-05T00:48:11.218Z,16.61
2017-07-05T00:48:15.166Z,16.61
2017-07-05T00:48:19.244Z,16.61
2017-07-05T00:48:23.328Z,16.61
2017-07-05T00:48:27.790Z,16.6
2017-07-05T00:48:31.857Z,16.6
2017-07-05T00:48:36.068Z,16.6
2017-07-05T00:48:40.269Z,16.6
2017-07-05T00:48:44.480Z,16.6
2017-07-05T00:48:48.821Z,16.6
2017-07-05T00:48:53.271Z,16.59
2017-07-05T00:48:57.625Z,16.59
2017-07-05T00:49:01.706Z,16.6
2017-07-05T00:49:05.411Z,16.59
2017-07-05T00:49:09.497Z,16.59
2017-07-05T00:49:13.712Z,16.59
2017-07-05T00:49:17.794Z,16.59
2017-07-05T00:49:21.992Z,16.59
2017-07-05T00:49:26.321Z,16.58
2017-07-05T00:49:30.649Z,16.59
2017-07-05T00:49:34.985Z,16.59
2017-07-05T00:49:39.312Z,16.59
2017-07-05T00:49:43.646Z,16.59
2017-07-05T00:49:47.847Z,16.58
2017-07-05T00:49:51.914Z,16.59
2017-07-05T00:49:56.118Z,16.58
2017-07-05T00:50:00.197Z,16.58
2017-07-05T00:50:04.479Z,16.57
2017-07-05T00:50:08.551Z,16.58
2017-07-05T00:50:12.379Z,16.57
2017-07-05T00:50:16.467Z,16.57
2017-07-05T00:50:20.294Z,16.57
2017-07-05T00:50:24.125Z,16.57
2017-07-05T00:50:28.197Z,16.57
2017-07-05T00:50:32.145Z,16.57
2017-07-05T00:50:36.090Z,16.56
2017-07-05T00:50:40.424Z,16.56
2017-07-05T00:50:44.826Z,16.56
2017-07-05T00:50:49.034Z,16.57
2017-07-05T00:50:53.243Z,16.57
2017-07-05T00:50:56.941Z,16.56
2017-07-05T00:51:00.893Z,16.56
2017-07-05T00:51:05.016Z,16.56
2017-07-05T00:51:09.347Z,16.56
2017-07-05T00:51:13.289Z,16.56
2017-07-05T00:51:17.625Z,16.56
2017-07-05T00:51:21.693Z,16.56
2017-07-05T00:51:25.829Z,16.56
2017-07-05T00:51:30.046Z,16.56
2017-07-05T00:51:34.124Z,16.56
2017-07-05T00:51:38.598Z,16.55
2017-07-05T00:51:42.804Z,16.56
2017-07-05T00:51:47.013Z,16.56
2017-07-05T00:51:51.106Z,16.56
2017-07-05T00:51:55.438Z,16.55
2017-07-05T00:51:59.396Z,16.55
2017-07-05T00:52:03.484Z,16.56
2017-07-05T00:52:07.572Z,16.55
2017-07-05T00:52:11.656Z,16.55
2017-07-05T00:52:15.736Z,16.55
2017-07-05T00:52:19.935Z,16.55
2017-07-05T00:52:23.879Z,16.55
2017-07-05T00:52:28.322Z,16.55
2017-07-05T00:52:32.402Z,16.55
2017-07-05T00:52:36.604Z,16.55
2017-07-05T00:52:41.066Z,16.55
2017-07-05T00:52:45.414Z,16.54
2017-07-05T00:52:49.609Z,16.54
2017-07-05T00:52:53.565Z,16.55
2017-07-05T00:52:58.026Z,16.55
2017-07-05T00:53:02.402Z,16.54
2017-07-05T00:53:06.469Z,16.55
2017-07-05T00:53:10.676Z,16.54
2017-07-05T00:53:14.504Z,16.54
2017-07-05T00:53:18.704Z,16.54
2017-07-05T00:53:22.652Z,16.54
2017-07-05T00:53:26.856Z,16.54